Аэропорт: Ужгород. Ужгород

ICAO: UKLU

METAR:
2018/07/22 19:00
UKLU 221900Z 10002MPS 9999 SCT040 21/17 Q1009 NOSIG
METAR:
2018/06/25 16:18
TAF 
      AMD TAF 
      AMD 251655 UKLU 2516/2524 VRB01MPS 9999 SCT040 
      TEMPO 2516/2521 -TSRA SCT040CB